Skip to main content

NOAA/GLERL Met Station at Michigan City, IN

Previous 5 days (top of hour only)
See also Previous 3 Hours (2 minute increments)
Jump down to Data
Switch to [English][Metric]
Zoom: Click and drag, Pan: shift-click and drag, Unzoom: double-click, Unzoom All






Note: Speed = mean wind during 2-minute period at top of hour,
Gust = max wind during 2-minute period at top of hour,
Peak = max wind during entire hour.
• See also 5-day windrose plot


NOAA/GLERL Met Station at Michigan City, IN

Previous 5 days (top of hour only)
See also Previous 3 Hours (2 minute increments)
Jump up to Graphs
Switch to [English][Metric]
                  Wind  Wind  Wind   Air   Dew   Rel     Sta   PAR
                   Spd   Gst   Dir  Temp    Pt   Hum    Pres uE/m2/
YYYY-MM-DD   CDT   kts   kts   deg     F     F     %   in Hg   sec
2024-04-20 06:00  25.5  29.4   280  38.8  21.5  49.4   29.44     0
2024-04-20 05:00  23.1  25.7   286  40.5  22.6  48.5   29.42     0
2024-04-20 04:00  23.7  26.2   285  41.4  21.9  45.5   29.42     0
2024-04-20 03:00  23.3  25.5   269  42.4  21.0  42.0   29.41     0
2024-04-20 02:00  22.2  24.7   267  44.1  24.4  45.6   29.42     0
2024-04-20 01:00  24.3  28.2   282  44.6  27.1  49.9   29.43     0
2024-04-20 00:00  21.2  22.9   301  45.3  30.4  55.6   29.41     0
2024-04-19 23:00  22.6  25.5   289  47.7  31.4  53.0   29.39     0
2024-04-19 22:00  17.1  18.3   243  50.4  33.6  52.3   29.38     0
2024-04-19 21:00  18.3  19.6   245  50.4  34.3  53.6   29.37     0
2024-04-19 20:00  19.2  20.8   250  50.7  33.7  51.8   29.36     0
2024-04-19 19:00  16.1  17.5   253  50.5  34.4  53.5   29.36    55
2024-04-19 18:00  15.2  16.7   257  50.7  33.7  51.7   29.36   328
2024-04-19 17:00  11.7  12.8   256  50.4  33.7  52.4   29.36   655
2024-04-19 16:00  10.3  11.3   247  49.8  32.1  50.1   29.36   983
2024-04-19 15:00   7.6   8.6   242  48.9  32.9  53.6   29.39  1311
2024-04-19 14:00   8.9   9.9   247  48.0  30.9  51.2   29.41  1475
2024-04-19 13:00  10.3  11.5   263  47.3  29.4  49.5   29.41  1638
2024-04-19 12:00  10.9  12.1   267  45.9  29.0  51.4   29.41  1632
2024-04-19 11:00  10.5  11.9   268  44.4  26.5  49.1   29.43  1475
2024-04-19 10:00  15.6  16.9   282  44.1  23.8  44.5   29.43  1312
2024-04-19 09:00  11.9  13.8   282  44.1  30.4  58.2   29.42   984
2024-04-19 08:00  17.1  22.2   297  44.1  30.9  59.5   29.41   656
2024-04-19 07:00  20.2  23.5   299  44.2  34.9  69.4   29.39   328
2024-04-19 06:00  18.3  19.8   311  44.2  37.0  75.3   29.36     0
2024-04-19 05:00  22.0  24.5   322  45.1  39.4  80.0   29.32     0
2024-04-19 04:00  10.5  11.5   298  45.0  42.4  90.6   29.31     0
2024-04-19 03:00  10.3  11.7   323  43.7  42.2  94.4   29.29     0
2024-04-19 02:00  12.6  13.2     6  44.1  42.6  94.6   29.26     0
2024-04-19 01:00  17.1  18.7     9  44.2  42.0  91.7   29.26     0
2024-04-19 00:00  14.4  15.9    31  45.0  42.1  89.6   29.26     0
2024-04-18 23:00  15.0  17.1    31  44.8  42.3  91.0   29.27     0
2024-04-18 22:00  15.2  16.9    20  45.0  42.2  89.9   29.29     0
2024-04-18 21:00  16.3  18.9    27  46.0  42.4  87.0   29.28     0
2024-04-18 20:00  16.3  17.5    11  47.1  41.1  79.2   29.28     0
2024-04-18 19:00  14.0  14.6    40  46.9  41.9  82.5   29.26     0
2024-04-18 18:00  13.4  15.4    23  48.0  41.4  77.5   29.27     0
2024-04-18 17:00  13.2  14.4    17  48.0  41.4  77.5   29.27   164
2024-04-18 16:00  15.2  15.9    24  50.0  41.6  72.6   29.24   655
2024-04-18 15:00  11.5  13.6    42  50.4  42.2  73.3   29.27   655
2024-04-18 14:00   6.8   7.6    40  50.0  42.2  74.4   29.33   860
2024-04-18 13:00   5.6   6.4    32  49.3  42.0  75.6   29.37   983
2024-04-18 12:00   4.5   4.7     4  49.6  42.3  75.6   29.41   328
2024-04-18 11:00   5.1   5.6    41  49.1  42.3  77.2   29.41   560
2024-04-18 10:00   0.6   1.0    41  49.5  43.6  80.0   29.41  1058
2024-04-18 09:00   4.5   4.9    12  48.7  43.2  81.0   29.38   512
2024-04-18 08:00   1.2   1.7    41  50.2  42.1  73.6   29.36   656
2024-04-18 07:00   2.9   3.9   239  48.4  42.2  78.9   29.38   328
2024-04-18 06:00   0.4   1.2   206  47.1  42.9  85.2   29.34     0
2024-04-18 05:00   8.0   8.4   300  48.4  41.8  77.8   29.33     0
2024-04-18 04:00   5.4   6.8   304  48.6  42.1  78.0   29.29     0
2024-04-18 03:00  10.1  10.7   288  50.0  41.6  72.6   29.28     0
2024-04-18 02:00  12.4  13.2   279  49.8  42.2  74.8   29.29     0
2024-04-18 01:00   8.9  10.3   272  49.3  43.2  79.4   29.28     0
2024-04-18 00:00  15.4  16.9   271  50.4  43.4  76.8   29.26     0
2024-04-17 23:00  12.6  13.4   265  49.3  44.1  82.2   29.25     0
2024-04-17 22:00  15.2  16.1   265  51.4  44.6  77.1   29.23     0
2024-04-17 21:00  19.6  21.0   244  52.9  45.3  75.1   29.20     0
2024-04-17 20:00  17.7  18.7   238  52.7  46.0  77.8   29.17     0
2024-04-17 19:00  18.3  19.2   232  52.5  46.7  80.3   29.13     0
2024-04-17 18:00  23.3  25.5   236  53.4  46.9  78.2   29.09     0
2024-04-17 17:00  20.4  22.2   239  54.0  47.0  77.0   29.06   164
2024-04-17 16:00  23.5  25.1   240  55.4  47.3  73.9   29.02   628
2024-04-17 15:00  19.8  22.0   234  54.7  47.9  77.7   29.01  1222
2024-04-17 14:00  15.7  18.9   234  55.2  48.5  77.7   28.99   171
2024-04-17 13:00  23.1  25.5   237  54.5  49.4  82.6   28.97   655
2024-04-17 12:00  21.4  22.7   243  56.1  47.7  73.2   28.93  1563
2024-04-17 11:00  19.4  22.4   235  58.1  47.2  66.6   28.91  1420
2024-04-17 10:00  19.6  21.2   236  57.4  54.0  88.4   28.89   137
2024-04-17 09:00  18.5  21.6   187  68.7  59.7  72.7   28.89   273
2024-04-17 08:00  19.4  22.7   184  67.6  60.8  78.3   28.91   266
2024-04-17 07:00  16.9  22.0   163  67.1  61.1  80.7   28.92   150
2024-04-17 06:00  11.9  14.6   162  66.0  61.0  83.7   28.93     0
2024-04-17 05:00  15.4  20.8   156  65.8  60.6  83.0   28.94     0
2024-04-17 04:00  15.7  20.2   162  66.2  60.0  80.1   28.95     0
2024-04-17 03:00  13.8  16.7   159  66.2  58.8  76.8   28.97     0
2024-04-17 02:00  11.5  13.8   135  63.5  57.7  81.2   28.98     0
2024-04-17 01:00  11.1  14.2   126  62.2  57.3  83.6   29.01     0
2024-04-17 00:00  11.1  13.4   121  62.1  56.3  81.1   29.04     0
2024-04-16 23:00  10.5  12.8    98  62.2  56.3  80.5   29.05     0
2024-04-16 22:00   7.4  10.5   123  66.4  55.0  66.3   29.06     0
2024-04-16 21:00   9.9  13.2   154  74.3  56.8  53.9   29.08     0
2024-04-16 20:00  14.8  19.2   136  76.1  56.6  50.2   29.02     0
2024-04-16 19:00  12.1  16.5   105  75.4  59.2  56.6   29.04     0
2024-04-16 18:00   8.4  13.6   167  79.0  56.8  45.9   29.11     0
2024-04-16 17:00  14.4  19.2   109  79.3  53.5  40.2   29.05   164
2024-04-16 16:00  16.1  23.5   119  78.8  52.5  39.5   29.08   491
2024-04-16 15:00  13.6  17.7   123  78.3  52.3  39.9   29.13   682
2024-04-16 14:00  15.7  20.2   145  77.0  50.6  39.0   29.18  1138
2024-04-16 13:00  14.0  18.3   112  74.1  44.7  34.4   29.21  1794
2024-04-16 12:00  15.9  20.0   107  71.4  40.9  32.7   29.23  1262
2024-04-16 11:00  16.1  19.6   111  68.0  38.9  34.0   29.28  1310
2024-04-16 10:00  15.7  19.2    97  65.1  37.3  35.4   29.29  1147
2024-04-16 09:00  10.5  15.7   126  62.1  35.0  36.0   29.33   983
2024-04-16 08:00  12.4  14.6    94  58.6  32.8  37.2   29.32   471
2024-04-16 07:00  11.9  13.2    72  55.9  32.4  40.4   29.33   178
2024-04-16 06:00  11.3  13.0    74  54.9  31.1  39.9   29.33     0
2024-04-16 05:00   9.9  12.2    89  55.2  31.0  39.3   29.33     0
2024-04-16 04:00  11.7  15.4    90  56.8  31.2  37.3   29.33     0
2024-04-16 03:00  10.3  11.9    77  57.6  30.2  34.9   29.34     0
2024-04-16 02:00  11.9  13.2    69  59.0  30.1  33.0   29.33     0
2024-04-16 01:00  10.7  12.2    54  53.8  39.6  58.3   29.33     0
2024-04-16 00:00   5.6   7.0    69  57.9  33.2  38.9   29.35     0
2024-04-15 23:00   4.5   5.1    77  57.9  33.2  38.8   29.34     0
2024-04-15 22:00   3.5   4.3    72  54.5  43.3  65.6   29.34     0
2024-04-15 21:00  12.6  13.0    47  55.0  41.4  59.7   29.34     0
2024-04-15 20:00   9.7  10.1    46  58.8  35.5  41.2   29.31     0
2024-04-15 19:00  11.5  11.9    53  57.7  34.6  41.4   29.31     0